createdAt,value
2019-01-21T00:00:49.322Z,85.97
2019-01-21T00:01:49.240Z,86.67
2019-01-21T00:02:49.232Z,86.60
2019-01-21T00:03:49.261Z,86.18
2019-01-21T00:04:49.207Z,85.44
2019-01-21T00:05:49.197Z,84.81
2019-01-21T00:06:49.185Z,84.91
2019-01-21T00:07:49.175Z,85.44
2019-01-21T00:08:49.180Z,85.55
2019-01-21T00:09:49.184Z,85.76
2019-01-21T00:10:49.143Z,85.44
2019-01-21T00:11:49.162Z,85.16
2019-01-21T00:12:49.120Z,85.48
2019-01-21T00:13:49.113Z,86.29
2019-01-21T00:14:49.100Z,87.03
2019-01-21T00:15:49.142Z,86.50
2019-01-21T00:16:49.081Z,86.50
2019-01-21T00:17:49.067Z,86.60
2019-01-21T00:18:49.057Z,87.24
2019-01-21T00:19:49.076Z,86.60
2019-01-21T00:20:49.035Z,86.18
2019-01-21T00:21:49.025Z,85.44
2019-01-21T00:22:49.012Z,85.44
2019-01-21T00:23:49.003Z,85.86
2019-01-21T00:24:49.020Z,86.01
2019-01-21T00:25:48.980Z,85.76
2019-01-21T00:26:48.971Z,86.65
2019-01-21T00:27:48.959Z,86.92
2019-01-21T00:28:48.978Z,87.24
2019-01-21T00:29:48.937Z,87.13
2019-01-21T00:30:48.927Z,87.03
2019-01-21T00:31:48.946Z,86.82
2019-01-21T00:32:48.904Z,86.82
2019-01-21T00:33:48.895Z,87.03
2019-01-21T00:34:48.884Z,86.08
2019-01-21T00:35:48.874Z,85.80
2019-01-21T00:36:48.892Z,85.59
2019-01-21T00:37:48.852Z,85.59
2019-01-21T00:38:48.840Z,85.69
2019-01-21T00:39:48.829Z,85.63
2019-01-21T00:40:48.848Z,86.40
2019-01-21T00:41:48.811Z,86.40
2019-01-21T00:42:48.798Z,86.43
2019-01-21T00:43:48.789Z,85.73
2019-01-21T00:44:48.779Z,85.80
2019-01-21T00:45:48.798Z,85.48
2019-01-21T00:46:48.754Z,85.16
2019-01-21T00:47:48.743Z,85.94
2019-01-21T00:48:48.765Z,86.05
2019-01-21T00:49:48.722Z,87.21
2019-01-21T00:50:48.712Z,86.58
2019-01-21T00:51:48.715Z,85.52
2019-01-21T00:52:48.689Z,85.73
2019-01-21T00:53:48.688Z,85.41
2019-01-21T00:54:48.702Z,84.67
2019-01-21T00:55:48.658Z,84.89
2019-01-21T00:56:48.682Z,84.57
2019-01-21T00:57:48.643Z,84.50
2019-01-21T00:58:48.625Z,84.14
2019-01-21T00:59:48.617Z,85.31
2019-01-21T01:00:48.604Z,86.16
2019-01-21T01:01:48.592Z,85.52
2019-01-21T01:02:48.610Z,85.14
2019-01-21T01:03:48.571Z,84.89
2019-01-21T01:04:48.561Z,85.14
2019-01-21T01:05:48.549Z,84.50
2019-01-21T01:06:48.570Z,85.84
2019-01-21T01:07:48.527Z,85.73
2019-01-21T01:08:48.547Z,84.99
2019-01-21T01:09:48.536Z,84.78
2019-01-21T01:10:48.495Z,83.94
2019-01-21T01:11:48.485Z,84.39
2019-01-21T01:12:48.473Z,84.89
2019-01-21T01:13:48.467Z,84.71
2019-01-21T01:14:48.454Z,84.29
2019-01-21T01:15:48.486Z,84.61
2019-01-21T01:16:48.432Z,85.24
2019-01-21T01:17:48.421Z,85.52
2019-01-21T01:18:48.410Z,85.31
2019-01-21T01:19:48.398Z,85.88
2019-01-21T01:20:48.387Z,86.09
2019-01-21T01:21:48.408Z,86.41
2019-01-21T01:22:48.365Z,86.68
2019-01-21T01:23:48.355Z,86.36
2019-01-21T01:24:48.344Z,85.77
2019-01-21T01:25:48.333Z,87.32
2019-01-21T01:26:48.323Z,87.42
2019-01-21T01:27:48.348Z,87.21
2019-01-21T01:28:48.302Z,86.68
2019-01-21T01:29:48.290Z,86.47
2019-01-21T01:30:48.279Z,85.52
2019-01-21T01:31:48.268Z,86.79
2019-01-21T01:32:48.257Z,85.73
2019-01-21T01:33:48.279Z,85.21
2019-01-21T01:34:48.251Z,84.89
2019-01-21T01:35:48.225Z,85.46
2019-01-21T01:36:48.215Z,85.84
2019-01-21T01:37:48.205Z,85.88
2019-01-21T01:38:48.196Z,86.09
2019-01-21T01:39:48.212Z,85.77
2019-01-21T01:40:48.173Z,86.19
2019-01-21T01:41:48.196Z,86.41
2019-01-21T01:42:48.181Z,85.77
2019-01-21T01:43:48.139Z,85.77
2019-01-21T01:44:48.128Z,85.66
2019-01-21T01:45:48.152Z,84.54
2019-01-21T01:46:48.106Z,84.75
2019-01-21T01:47:48.100Z,84.44
2019-01-21T01:48:48.117Z,85.39
2019-01-21T01:49:48.076Z,85.91
2019-01-21T01:50:48.066Z,86.02
2019-01-21T01:51:48.055Z,86.55
2019-01-21T01:52:48.044Z,87.29
2019-01-21T01:53:48.035Z,86.98
2019-01-21T01:54:48.067Z,86.44
2019-01-21T01:55:48.011Z,86.87
2019-01-21T01:56:48.004Z,86.76
2019-01-21T01:57:47.991Z,86.55
2019-01-21T01:58:47.982Z,87.08
2019-01-21T01:59:47.973Z,87.36
2019-01-21T02:00:47.995Z,87.40
2019-01-21T02:01:47.949Z,87.68
2019-01-21T02:02:47.940Z,87.95
2019-01-21T02:03:47.927Z,86.68
2019-01-21T02:04:47.914Z,85.63
2019-01-21T02:05:47.905Z,85.63
2019-01-21T02:06:47.924Z,85.63
2019-01-21T02:07:47.883Z,85.10
2019-01-21T02:08:47.878Z,85.52
2019-01-21T02:09:47.893Z,85.84
2019-01-21T02:10:47.851Z,85.31
2019-01-21T02:11:47.841Z,85.84
2019-01-21T02:12:47.834Z,84.89
2019-01-21T02:13:47.820Z,84.61
2019-01-21T02:14:47.808Z,84.61
2019-01-21T02:15:47.828Z,85.63
2019-01-21T02:16:47.786Z,85.56
2019-01-21T02:17:52.046Z,85.88
2019-01-21T02:18:47.795Z,86.09
2019-01-21T02:19:47.754Z,86.83
2019-01-21T02:20:47.751Z,86.72
2019-01-21T02:21:47.735Z,86.51
2019-01-21T02:22:47.780Z,86.61
2019-01-21T02:23:47.717Z,85.46
2019-01-21T02:24:47.701Z,85.46
2019-01-21T02:25:47.719Z,86.09
2019-01-21T02:26:47.709Z,85.46
2019-01-21T02:27:47.668Z,85.60
2019-01-21T02:28:47.658Z,85.28
2019-01-21T02:29:47.646Z,85.88
2019-01-21T02:30:47.639Z,85.91
2019-01-21T02:31:47.626Z,85.81
2019-01-21T02:32:47.644Z,85.91
2019-01-21T02:33:47.608Z,85.81
2019-01-21T02:34:47.624Z,85.77
2019-01-21T02:35:47.583Z,85.66
2019-01-21T02:36:47.571Z,85.17
2019-01-21T02:37:47.563Z,85.17
2019-01-21T02:38:47.556Z,84.64
2019-01-21T02:39:47.543Z,84.75
2019-01-21T02:40:47.560Z,84.44
2019-01-21T02:41:47.521Z,84.58
2019-01-21T02:42:47.507Z,84.47
2019-01-21T02:43:47.497Z,85.64
2019-01-21T02:44:47.487Z,85.32
2019-01-21T02:45:47.476Z,85.64
2019-01-21T02:46:47.497Z,85.71
2019-01-21T02:47:47.483Z,85.81
2019-01-21T02:48:47.443Z,86.44
2019-01-21T02:49:47.433Z,86.34
2019-01-21T02:50:47.422Z,85.85
2019-01-21T02:51:47.440Z,85.81
2019-01-21T02:52:47.403Z,87.61
2019-01-21T02:53:47.420Z,87.82
2019-01-21T02:54:47.379Z,87.82
2019-01-21T02:55:47.371Z,86.76
2019-01-21T02:56:47.357Z,86.55
2019-01-21T02:57:47.376Z,86.13
2019-01-21T02:58:47.336Z,86.23
2019-01-21T02:59:47.326Z,86.38
2019-01-21T03:00:47.314Z,86.55
2019-01-21T03:01:47.345Z,85.64
2019-01-21T03:02:47.292Z,85.64
2019-01-21T03:03:47.326Z,85.21
2019-01-21T03:04:47.271Z,85.11
2019-01-21T03:05:47.303Z,85.64
2019-01-21T03:06:47.250Z,85.00
2019-01-21T03:07:47.242Z,84.58
2019-01-21T03:08:47.228Z,85.21
2019-01-21T03:09:47.263Z,85.00
2019-01-21T03:10:47.209Z,84.47
2019-01-21T03:11:47.198Z,85.81
2019-01-21T03:12:47.227Z,85.60
2019-01-21T03:13:47.175Z,84.69
2019-01-21T03:14:47.167Z,85.00
2019-01-21T03:15:47.152Z,84.47
2019-01-21T03:16:47.184Z,86.06
2019-01-21T03:17:47.174Z,86.16
2019-01-21T03:18:47.120Z,86.34
2019-01-21T03:19:47.120Z,86.55
2019-01-21T03:20:47.138Z,86.34
2019-01-21T03:21:47.088Z,86.87
2019-01-21T03:22:47.083Z,87.36
2019-01-21T03:23:47.070Z,86.72
2019-01-21T03:24:47.096Z,85.88
2019-01-21T03:25:47.046Z,86.02
2019-01-21T03:26:47.037Z,85.49
2019-01-21T03:27:47.025Z,85.91
2019-01-21T03:28:47.057Z,85.91
2019-01-21T03:29:47.003Z,86.44
2019-01-21T03:30:46.994Z,86.76
2019-01-21T03:31:46.991Z,86.76
2019-01-21T03:32:46.978Z,86.16
2019-01-21T03:33:46.965Z,85.64
2019-01-21T03:34:46.993Z,85.74
2019-01-21T03:35:46.942Z,85.21
2019-01-21T03:36:46.927Z,85.74
2019-01-21T03:37:46.957Z,85.64
2019-01-21T03:38:46.906Z,86.55
2019-01-21T03:39:46.897Z,86.98
2019-01-21T03:40:46.926Z,86.87
2019-01-21T03:41:46.887Z,85.91
2019-01-21T03:42:46.902Z,86.55
2019-01-21T03:43:46.853Z,87.40
2019-01-21T03:44:46.843Z,87.57
2019-01-21T03:45:46.831Z,87.46
2019-01-21T03:46:46.822Z,87.04
2019-01-21T03:47:46.817Z,86.83
2019-01-21T03:48:46.837Z,86.61
2019-01-21T03:49:46.831Z,86.19
2019-01-21T03:50:46.776Z,86.02
2019-01-21T03:51:46.770Z,85.28
2019-01-21T03:52:46.758Z,85.07
2019-01-21T03:53:46.790Z,84.54
2019-01-21T03:54:46.735Z,83.84
2019-01-21T03:55:46.763Z,84.05
2019-01-21T03:56:46.717Z,84.54
2019-01-21T03:57:46.702Z,85.60
2019-01-21T03:58:46.691Z,85.32
2019-01-21T03:59:46.727Z,85.71
2019-01-21T04:00:46.670Z,86.16
2019-01-21T04:01:46.663Z,85.81
2019-01-21T04:02:46.647Z,85.60
2019-01-21T04:03:46.639Z,85.53
2019-01-21T04:04:46.665Z,85.32
2019-01-21T04:05:46.625Z,85.32
2019-01-21T04:06:46.604Z,85.64
2019-01-21T04:07:46.595Z,86.76
2019-01-21T04:08:46.591Z,86.66
2019-01-21T04:09:46.574Z,85.60
2019-01-21T04:10:46.613Z,85.85
2019-01-21T04:11:46.551Z,85.74
2019-01-21T04:12:46.541Z,84.47
2019-01-21T04:13:46.535Z,85.04
2019-01-21T04:14:46.518Z,84.83
2019-01-21T04:15:46.507Z,86.31
2019-01-21T04:16:46.540Z,86.59
2019-01-21T04:17:46.537Z,87.12
2019-01-21T04:18:46.486Z,86.59
2019-01-21T04:19:46.466Z,86.38
2019-01-21T04:20:46.461Z,85.91
2019-01-21T04:21:46.447Z,85.85
2019-01-21T04:22:46.432Z,86.34
2019-01-21T04:23:46.478Z,86.34
2019-01-21T04:24:46.412Z,86.06
2019-01-21T04:25:46.401Z,85.64
2019-01-21T04:26:46.391Z,85.64
2019-01-21T04:27:46.380Z,85.36
2019-01-21T04:28:46.369Z,85.68
2019-01-21T04:29:46.396Z,86.84
2019-01-21T04:30:46.348Z,87.33
2019-01-21T04:31:46.335Z,87.82
2019-01-21T04:32:46.343Z,87.29
2019-01-21T04:33:46.313Z,87.18
2019-01-21T04:34:46.306Z,87.29
2019-01-21T04:35:46.338Z,87.18
2019-01-21T04:36:46.282Z,87.29
2019-01-21T04:37:46.271Z,85.91
2019-01-21T04:38:46.262Z,85.85
2019-01-21T04:39:46.297Z,84.26
2019-01-21T04:40:46.239Z,84.89
2019-01-21T04:41:46.233Z,84.93
2019-01-21T04:42:46.245Z,85.14
2019-01-21T04:43:46.206Z,85.78
2019-01-21T04:44:46.200Z,84.61
2019-01-21T04:45:46.233Z,84.41
2019-01-21T04:46:46.178Z,84.61
2019-01-21T04:47:46.171Z,84.61
2019-01-21T04:48:46.156Z,84.93
2019-01-21T04:49:46.144Z,85.14
2019-01-21T04:50:46.177Z,85.25
2019-01-21T04:51:46.121Z,85.04
2019-01-21T04:52:46.169Z,84.12
2019-01-21T04:53:46.102Z,84.61
2019-01-21T04:54:46.140Z,84.83
2019-01-21T04:55:46.144Z,86.63
2019-01-21T04:56:46.069Z,86.63
2019-01-21T04:57:46.099Z,86.21
2019-01-21T04:58:47.195Z,85.89
2019-01-21T04:59:46.044Z,85.78
2019-01-21T05:00:46.027Z,85.89
2019-01-21T05:01:46.053Z,85.46
2019-01-21T05:02:46.003Z,85.04
2019-01-21T05:03:45.993Z,85.99
2019-01-21T05:04:46.026Z,85.99
2019-01-21T05:05:45.971Z,86.10
2019-01-21T05:06:45.961Z,85.99
2019-01-21T05:07:45.950Z,85.89
2019-01-21T05:08:45.940Z,85.68
2019-01-21T05:09:45.931Z,84.61
2019-01-21T05:10:45.997Z,85.14
2019-01-21T05:11:45.915Z,84.93
2019-01-21T05:12:45.940Z,85.08
2019-01-21T05:13:45.927Z,84.34
2019-01-21T05:14:45.874Z,85.08
2019-01-21T05:15:45.883Z,85.08
2019-01-21T05:16:45.854Z,85.50
2019-01-21T05:17:45.911Z,86.14
2019-01-21T05:18:45.832Z,85.50
2019-01-21T05:19:45.870Z,85.82
2019-01-21T05:20:45.813Z,85.08
2019-01-21T05:21:45.801Z,85.04
2019-01-21T05:22:45.789Z,85.29
2019-01-21T05:23:45.778Z,85.57
2019-01-21T05:24:45.768Z,85.46
2019-01-21T05:25:45.811Z,86.27
2019-01-21T05:26:45.745Z,85.42
2019-01-21T05:27:45.735Z,84.89
2019-01-21T05:28:45.724Z,84.58
2019-01-21T05:29:45.718Z,84.09
2019-01-21T05:30:45.704Z,83.62
2019-01-21T05:31:45.734Z,83.56
2019-01-21T05:32:45.681Z,83.98
2019-01-21T05:33:45.673Z,83.87
2019-01-21T05:34:45.659Z,83.87
2019-01-21T05:35:45.650Z,84.58
2019-01-21T05:36:45.681Z,84.79
2019-01-21T05:37:45.625Z,84.19
2019-01-21T05:38:45.618Z,83.66
2019-01-21T05:39:45.606Z,83.34
2019-01-21T05:40:45.644Z,83.34
2019-01-21T05:41:45.586Z,84.69
2019-01-21T05:42:45.573Z,84.89
2019-01-21T05:43:45.605Z,84.36
2019-01-21T05:44:45.553Z,84.69
2019-01-21T05:45:45.541Z,84.51
2019-01-21T05:46:45.534Z,84.83
2019-01-21T05:47:45.576Z,85.96
2019-01-21T05:48:49.017Z,86.91
2019-01-21T05:49:45.500Z,85.32
2019-01-21T05:50:45.492Z,85.64
2019-01-21T05:51:45.477Z,84.47
2019-01-21T05:52:45.467Z,84.69
2019-01-21T05:53:45.496Z,84.89
2019-01-21T05:54:45.444Z,85.42
2019-01-21T05:55:45.435Z,85.42
2019-01-21T05:56:45.425Z,85.39
2019-01-21T05:57:45.414Z,84.64
2019-01-21T05:58:45.427Z,84.26
2019-01-21T05:59:45.435Z,85.21
2019-01-21T06:00:45.380Z,84.79
2019-01-21T06:01:45.372Z,84.69
2019-01-21T06:02:45.374Z,85.11
2019-01-21T06:03:45.353Z,85.85
2019-01-21T06:04:45.384Z,85.11
2019-01-21T06:05:45.331Z,85.85
2019-01-21T06:06:45.326Z,85.74
2019-01-21T06:07:45.356Z,86.06
2019-01-21T06:08:45.300Z,86.23
2019-01-21T06:09:45.347Z,86.66
2019-01-21T06:10:45.282Z,86.30
2019-01-21T06:11:45.286Z,86.09
2019-01-21T06:12:45.255Z,84.92
2019-01-21T06:13:45.248Z,84.29
2019-01-21T06:14:45.233Z,84.33
2019-01-21T06:15:45.264Z,83.69
2019-01-21T06:16:45.248Z,83.41
2019-01-21T06:17:45.203Z,83.62
2019-01-21T06:18:45.193Z,83.31
2019-01-21T06:19:45.191Z,83.45
2019-01-21T06:20:45.171Z,83.31
2019-01-21T06:21:45.207Z,83.56
2019-01-21T06:22:45.149Z,83.45
2019-01-21T06:23:45.147Z,84.51
2019-01-21T06:24:45.123Z,84.72
2019-01-21T06:25:45.134Z,84.61
2019-01-21T06:26:45.145Z,83.98
2019-01-21T06:27:45.096Z,84.01
2019-01-21T06:28:45.083Z,84.12
2019-01-21T06:29:45.072Z,84.66
2019-01-21T06:30:45.061Z,84.66
2019-01-21T06:31:45.054Z,85.18
2019-01-21T06:32:45.107Z,84.86
2019-01-21T06:33:45.026Z,84.72
2019-01-21T06:34:45.036Z,85.46
2019-01-21T06:35:45.010Z,85.89
2019-01-21T06:36:44.996Z,85.46
2019-01-21T06:37:45.032Z,85.14
2019-01-21T06:38:44.993Z,85.14
2019-01-21T06:39:44.972Z,84.83
2019-01-21T06:40:44.957Z,84.61
2019-01-21T06:41:44.947Z,84.12
2019-01-21T06:42:44.934Z,84.01
2019-01-21T06:43:44.972Z,84.76
2019-01-21T06:44:44.952Z,84.55
2019-01-21T06:45:44.902Z,84.41
2019-01-21T06:46:44.896Z,85.29
2019-01-21T06:47:44.886Z,85.04
2019-01-21T06:48:44.868Z,84.51
2019-01-21T06:49:44.864Z,84.61
2019-01-21T06:50:44.901Z,84.41
2019-01-21T06:51:44.855Z,83.98
2019-01-21T06:52:44.825Z,84.72
2019-01-21T06:53:44.821Z,84.51
2019-01-21T06:54:44.806Z,83.98
2019-01-21T06:55:44.796Z,83.56
2019-01-21T06:56:47.611Z,84.61
2019-01-21T06:57:44.813Z,84.09
2019-01-21T06:58:44.771Z,83.59
2019-01-21T06:59:44.762Z,83.91
2019-01-21T07:00:44.745Z,84.23
2019-01-21T07:01:44.761Z,84.66
2019-01-21T07:02:44.740Z,84.86
2019-01-21T07:03:44.776Z,85.39
2019-01-21T07:04:44.712Z,84.83
2019-01-21T07:05:44.747Z,85.61
2019-01-21T07:06:44.732Z,85.89
2019-01-21T07:07:44.669Z,85.89
2019-01-21T07:08:44.688Z,85.36
2019-01-21T07:09:44.646Z,85.89
2019-01-21T07:10:44.635Z,85.89
2019-01-21T07:11:44.698Z,85.36
2019-01-21T07:12:44.622Z,85.68
2019-01-21T07:13:44.625Z,85.00
2019-01-21T07:14:44.604Z,85.04
2019-01-21T07:15:44.577Z,84.09
2019-01-21T07:16:44.593Z,83.56
2019-01-21T07:17:44.600Z,83.45
2019-01-21T07:18:44.615Z,83.66
2019-01-21T07:19:46.262Z,84.30
2019-01-21T07:20:44.595Z,84.51
2019-01-21T07:21:44.522Z,85.25
2019-01-21T07:22:44.515Z,84.69
2019-01-21T07:23:44.533Z,83.84
2019-01-21T07:24:44.487Z,84.05
2019-01-21T07:25:44.494Z,83.73
2019-01-21T07:26:44.595Z,83.73
2019-01-21T07:27:44.482Z,83.31
2019-01-21T07:28:44.568Z,83.77
2019-01-21T07:29:44.487Z,83.66
2019-01-21T07:30:44.431Z,83.24
2019-01-21T07:31:44.418Z,83.66
2019-01-21T07:32:44.460Z,84.09
2019-01-21T07:33:44.385Z,83.45
2019-01-21T07:34:44.376Z,84.51
2019-01-21T07:35:44.455Z,84.61
2019-01-21T07:36:44.365Z,85.36
2019-01-21T07:37:44.373Z,84.51
2019-01-21T07:38:44.335Z,84.93
2019-01-21T07:39:44.324Z,85.04
2019-01-21T07:40:44.326Z,84.41
2019-01-21T07:41:44.368Z,84.83
2019-01-21T07:42:44.300Z,85.14
2019-01-21T07:43:44.360Z,85.74
2019-01-21T07:44:44.288Z,86.27
2019-01-21T07:45:44.255Z,84.58
2019-01-21T07:46:44.261Z,83.73
2019-01-21T07:47:44.306Z,83.52
2019-01-21T07:48:44.291Z,83.56
2019-01-21T07:49:44.225Z,83.98
2019-01-21T07:50:44.233Z,83.45
2019-01-21T07:51:44.256Z,84.51
2019-01-21T07:52:44.198Z,84.61
2019-01-21T07:53:44.292Z,84.30
2019-01-21T07:54:44.209Z,83.73
2019-01-21T07:55:44.200Z,83.52
2019-01-21T07:56:44.204Z,83.94
2019-01-21T07:57:44.171Z,84.58
2019-01-21T07:58:44.125Z,83.80
2019-01-21T07:59:44.212Z,83.69
2019-01-21T08:00:44.103Z,83.69
2019-01-21T08:01:44.129Z,83.80
2019-01-21T08:02:44.076Z,83.34
2019-01-21T08:03:44.065Z,83.48
2019-01-21T08:04:44.060Z,84.78
2019-01-21T08:05:44.191Z,83.97
2019-01-21T08:06:45.334Z,81.96
2019-01-21T08:07:44.055Z,82.28
2019-01-21T08:08:44.015Z,83.12
2019-01-21T08:09:43.997Z,83.23
2019-01-21T08:10:43.987Z,82.39
2019-01-21T08:11:44.023Z,81.33
2019-01-21T08:12:43.986Z,82.17
2019-01-21T08:13:43.989Z,82.28
2019-01-21T08:14:43.951Z,83.23
2019-01-21T08:15:43.938Z,82.70
2019-01-21T08:16:43.969Z,82.81
2019-01-21T08:17:43.925Z,83.34
2019-01-21T08:18:43.963Z,83.51
2019-01-21T08:19:43.900Z,82.98
2019-01-21T08:20:43.880Z,83.44
2019-01-21T08:21:43.874Z,82.24
2019-01-21T08:22:43.862Z,81.96
2019-01-21T08:23:43.865Z,82.03
2019-01-21T08:24:43.915Z,83.30
2019-01-21T08:25:43.882Z,83.40
2019-01-21T08:26:43.823Z,82.53
2019-01-21T08:27:43.868Z,81.93
2019-01-21T08:28:43.803Z,83.26
2019-01-21T08:29:43.802Z,84.49
2019-01-21T08:30:43.818Z,83.44
2019-01-21T08:31:43.770Z,82.21
2019-01-21T08:32:43.758Z,82.48
2019-01-21T08:33:43.745Z,82.28
2019-01-21T08:34:43.734Z,81.85
2019-01-21T08:35:43.765Z,81.74
2019-01-21T08:36:43.710Z,81.74
2019-01-21T08:37:43.716Z,81.32
2019-01-21T08:38:43.704Z,81.32
2019-01-21T08:39:43.678Z,82.21
2019-01-21T08:40:43.671Z,82.70
2019-01-21T08:41:44.868Z,83.12
2019-01-21T08:42:43.654Z,82.48
2019-01-21T08:43:43.636Z,82.06
2019-01-21T08:44:43.650Z,82.48
2019-01-21T08:45:43.618Z,82.98
2019-01-21T08:46:43.600Z,82.13
2019-01-21T08:47:43.633Z,81.96
2019-01-21T08:48:43.663Z,82.45
2019-01-21T08:49:43.580Z,81.50
2019-01-21T08:50:43.593Z,81.29
2019-01-21T08:51:43.581Z,82.34
2019-01-21T08:52:43.541Z,84.31
2019-01-21T08:53:43.552Z,83.47
2019-01-21T08:54:43.560Z,82.37
2019-01-21T08:55:43.523Z,81.01
2019-01-21T08:56:43.531Z,81.46
2019-01-21T08:57:43.505Z,81.43
2019-01-21T08:58:43.485Z,81.53
2019-01-21T08:59:43.462Z,80.58
2019-01-21T09:00:43.549Z,81.32
2019-01-21T09:01:43.443Z,80.86
2019-01-21T09:02:43.447Z,80.54
2019-01-21T09:03:43.430Z,80.76
2019-01-21T09:04:43.455Z,81.60
2019-01-21T09:05:43.453Z,81.24
2019-01-21T09:06:43.425Z,81.14
2019-01-21T09:07:43.398Z,80.72
2019-01-21T09:08:43.371Z,80.76
2019-01-21T09:09:43.361Z,80.33
2019-01-21T09:10:43.431Z,79.98
2019-01-21T09:11:43.332Z,80.54
2019-01-21T09:12:43.349Z,80.86
2019-01-21T09:13:43.359Z,80.65
2019-01-21T09:14:43.307Z,80.54
2019-01-21T09:15:43.293Z,81.39
2019-01-21T09:16:43.298Z,81.70
2019-01-21T09:17:43.328Z,81.07
2019-01-21T09:18:43.269Z,80.62
2019-01-21T09:19:43.294Z,79.77
2019-01-21T09:20:43.251Z,80.82
2019-01-21T09:21:43.277Z,80.40
2019-01-21T09:22:43.224Z,79.46
2019-01-21T09:23:43.220Z,79.98
2019-01-21T09:24:43.229Z,79.35
2019-01-21T09:25:43.191Z,79.46
2019-01-21T09:26:43.186Z,80.40
2019-01-21T09:27:43.205Z,79.32
2019-01-21T09:28:43.151Z,80.05
2019-01-21T09:29:43.159Z,79.00
2019-01-21T09:30:43.135Z,79.21
2019-01-21T09:31:43.124Z,79.42
2019-01-21T09:32:43.119Z,79.42
2019-01-21T09:33:43.154Z,80.36
2019-01-21T09:34:43.114Z,78.68
2019-01-21T09:35:43.078Z,80.33
2019-01-21T09:36:43.095Z,80.16
2019-01-21T09:37:43.084Z,80.40
2019-01-21T09:38:43.051Z,79.87
2019-01-21T09:39:43.285Z,78.72
2019-01-21T09:40:43.027Z,80.47
2019-01-21T09:41:43.557Z,80.15
2019-01-21T09:42:43.052Z,77.73
2019-01-21T09:43:42.989Z,78.16
2019-01-21T09:44:42.977Z,78.05
2019-01-21T09:45:42.982Z,78.47
2019-01-21T09:46:42.973Z,79.17
2019-01-21T09:47:42.945Z,78.26
2019-01-21T09:48:42.986Z,78.02
2019-01-21T09:49:43.793Z,76.75
2019-01-21T09:50:42.921Z,77.17
2019-01-21T09:51:42.900Z,77.59
2019-01-21T09:52:43.066Z,77.07
2019-01-21T09:53:42.888Z,76.47
2019-01-21T09:54:42.939Z,77.80
2019-01-21T09:55:42.879Z,78.75
2019-01-21T09:56:42.854Z,78.44
2019-01-21T09:57:42.903Z,78.64
2019-01-21T09:58:42.898Z,77.87
2019-01-21T09:59:42.822Z,77.45
2019-01-21T10:00:42.833Z,77.45
2019-01-21T10:01:42.791Z,77.56
2019-01-21T10:02:42.872Z,76.82
2019-01-21T10:03:42.847Z,76.51
2019-01-21T10:04:42.820Z,76.51
2019-01-21T10:05:42.788Z,76.89
2019-01-21T10:06:42.804Z,77.76
2019-01-21T10:07:42.726Z,76.51
2019-01-21T10:08:42.763Z,77.45
2019-01-21T10:09:42.718Z,77.84
2019-01-21T10:10:42.700Z,79.41
2019-01-21T10:11:42.731Z,77.73
2019-01-21T10:12:42.674Z,77.38
2019-01-21T10:13:42.663Z,77.91
2019-01-21T10:14:42.759Z,76.33
2019-01-21T10:15:42.636Z,77.70
2019-01-21T10:16:42.671Z,78.22
2019-01-21T10:17:43.131Z,78.39
2019-01-21T10:18:42.649Z,77.24
2019-01-21T10:19:42.619Z,77.98
2019-01-21T10:20:42.598Z,77.34
2019-01-21T10:21:42.647Z,76.61
2019-01-21T10:22:42.606Z,77.73
2019-01-21T10:23:42.552Z,77.45
2019-01-21T10:24:42.621Z,76.09
2019-01-21T10:25:42.530Z,77.24
2019-01-21T10:26:42.599Z,78.67
2019-01-21T10:27:42.732Z,77.10
2019-01-21T10:28:42.543Z,77.52
2019-01-21T10:29:43.140Z,77.10
2019-01-21T10:30:42.480Z,76.26
2019-01-21T10:31:42.471Z,77.42
2019-01-21T10:32:43.225Z,78.11
2019-01-21T10:33:42.442Z,76.54
2019-01-21T10:34:42.690Z,75.70
2019-01-21T10:35:42.484Z,75.39
2019-01-21T10:36:42.472Z,75.07
2019-01-21T10:37:42.400Z,75.84
2019-01-21T10:38:42.413Z,75.21
2019-01-21T10:39:42.379Z,77.59
2019-01-21T10:40:42.376Z,76.33
2019-01-21T10:41:42.682Z,76.75
2019-01-21T10:42:42.359Z,77.38
2019-01-21T10:43:42.341Z,77.24
2019-01-21T10:44:42.349Z,75.56
2019-01-21T10:45:43.154Z,76.09
2019-01-21T10:46:42.404Z,77.14
2019-01-21T10:47:42.315Z,77.00
2019-01-21T10:48:42.286Z,75.95
2019-01-21T10:49:42.297Z,75.53
2019-01-21T10:50:42.278Z,74.06
2019-01-21T10:51:42.248Z,73.85
2019-01-21T10:52:42.326Z,73.26
2019-01-21T10:53:42.245Z,73.79
2019-01-21T10:54:42.260Z,73.26
2019-01-21T10:55:42.221Z,75.11
2019-01-21T10:56:42.220Z,76.06
2019-01-21T10:57:42.193Z,76.06
2019-01-21T10:58:42.312Z,74.38
2019-01-21T10:59:42.204Z,73.22
2019-01-21T11:00:42.163Z,74.69
2019-01-21T11:01:42.189Z,74.58
2019-01-21T11:02:42.273Z,75.53
2019-01-21T11:03:42.212Z,73.85
2019-01-21T11:04:42.114Z,74.24
2019-01-21T11:05:42.097Z,73.93
2019-01-21T11:06:42.093Z,73.82
2019-01-21T11:07:42.082Z,72.88
2019-01-21T11:08:42.069Z,74.31
2019-01-21T11:09:42.092Z,74.31
2019-01-21T11:10:42.063Z,75.95
2019-01-21T11:11:42.040Z,73.13
2019-01-21T11:12:42.045Z,73.54
2019-01-21T11:13:42.015Z,72.71
2019-01-21T11:14:42.004Z,73.65
2019-01-21T11:15:42.032Z,73.82
2019-01-21T11:16:41.995Z,71.52
2019-01-21T11:17:41.964Z,71.03
2019-01-21T11:18:42.352Z,70.61
2019-01-21T11:19:44.133Z,70.72
2019-01-21T11:20:45.279Z,72.60
2019-01-21T11:21:42.905Z,72.92
2019-01-21T11:22:42.746Z,71.94
2019-01-21T11:23:42.068Z,70.72
2019-01-21T11:24:41.913Z,69.64
2019-01-21T11:25:41.892Z,72.36
2019-01-21T11:26:41.884Z,71.56
2019-01-21T11:27:41.919Z,71.56
2019-01-21T11:28:42.552Z,71.34
2019-01-21T11:29:41.881Z,71.77
2019-01-21T11:30:41.835Z,70.58
2019-01-21T11:31:41.907Z,70.40
2019-01-21T11:32:41.818Z,72.05
2019-01-21T11:33:41.844Z,72.57
2019-01-21T11:34:41.887Z,71.73
2019-01-21T11:35:41.815Z,70.37
2019-01-21T11:36:41.756Z,71.84
2019-01-21T11:37:41.885Z,71.21
2019-01-21T11:38:41.744Z,71.80
2019-01-21T11:39:41.723Z,73.58
2019-01-21T11:40:42.204Z,72.40
2019-01-21T11:41:41.706Z,71.74
2019-01-21T11:42:41.692Z,70.17
2019-01-21T11:43:41.686Z,70.62
2019-01-21T11:44:41.794Z,70.59
2019-01-21T11:45:41.662Z,70.59
2019-01-21T11:46:41.677Z,67.98
2019-01-21T11:47:42.619Z,68.50
2019-01-21T11:48:43.165Z,69.23
2019-01-21T11:49:41.643Z,68.71
2019-01-21T11:50:41.722Z,69.44
2019-01-21T11:51:41.636Z,69.65
2019-01-21T11:52:41.589Z,69.89
2019-01-21T11:53:41.626Z,70.07
2019-01-21T11:54:41.577Z,69.34
2019-01-21T11:55:41.598Z,68.71
2019-01-21T11:56:41.567Z,69.65
2019-01-21T11:57:41.552Z,69.47
2019-01-21T11:58:41.524Z,70.52
2019-01-21T11:59:41.557Z,69.89
2019-01-21T12:00:41.578Z,70.62
2019-01-21T12:01:41.530Z,69.89
2019-01-21T12:02:41.481Z,70.10
2019-01-21T12:03:42.160Z,70.38
2019-01-21T12:04:41.454Z,69.44
2019-01-21T12:05:41.460Z,69.96
2019-01-21T12:06:41.480Z,70.28
2019-01-21T12:07:41.488Z,69.54
2019-01-21T12:08:41.414Z,69.65
2019-01-21T12:09:41.403Z,69.76
2019-01-21T12:10:41.392Z,69.13
2019-01-21T12:11:41.378Z,69.76
2019-01-21T12:12:41.372Z,71.11
2019-01-21T12:13:41.435Z,72.33
2019-01-21T12:14:41.355Z,69.90
2019-01-21T12:15:41.349Z,67.26
2019-01-21T12:16:41.378Z,66.42
2019-01-21T12:17:41.312Z,68.51
2019-01-21T12:18:41.317Z,69.10
2019-01-21T12:19:41.302Z,67.85
2019-01-21T12:20:41.368Z,68.79
2019-01-21T12:21:41.347Z,68.59
2019-01-21T12:22:41.559Z,65.98
2019-01-21T12:23:41.307Z,68.07
2019-01-21T12:24:41.249Z,69.07
2019-01-21T12:25:41.260Z,67.10
2019-01-21T12:26:41.223Z,65.43
2019-01-21T12:27:41.289Z,66.26
2019-01-21T12:28:41.245Z,66.78
2019-01-21T12:29:41.237Z,67.10
2019-01-21T12:30:41.173Z,67.20
2019-01-21T12:31:41.185Z,66.89
2019-01-21T12:32:41.150Z,66.99
2019-01-21T12:33:41.177Z,67.10
2019-01-21T12:34:41.172Z,66.68
2019-01-21T12:35:41.157Z,69.35
2019-01-21T12:36:41.110Z,66.33
2019-01-21T12:37:41.143Z,66.96
2019-01-21T12:38:41.089Z,65.06
2019-01-21T12:39:41.090Z,64.01
2019-01-21T12:40:41.061Z,64.46
2019-01-21T12:41:41.320Z,64.46
2019-01-21T12:42:41.102Z,65.11
2019-01-21T12:43:41.041Z,67.30
2019-01-21T12:44:41.020Z,66.68
2019-01-21T12:45:41.010Z,66.75
2019-01-21T12:46:41.011Z,66.13
2019-01-21T12:47:40.990Z,64.25
2019-01-21T12:48:41.019Z,65.40
2019-01-21T12:49:40.965Z,65.30
2019-01-21T12:50:40.952Z,65.43
2019-01-21T12:51:40.944Z,64.80
2019-01-21T12:52:40.940Z,64.77